Time;durP1;ratioP1;P1;durP2;ratioP2;P2;SDS_P1;SDS_P2;PMS_P1;PMS_P2;Temp;Humidity;BMP_temperature;BMP_pressure;BME280_temperature;BME280_humidity;BME280_pressure;Samples;Min_cycle;Max_cycle;Signal;HPM_P1;HPM_P2
2023/05/29 00:00:45;;;;;;;9.47;4.90;;;;;;;13.89;66.10;101451.38;4912036;29;21005;-83
2023/05/29 00:03:14;;;;;;;9.63;4.47;;;;;;;13.72;66.67;101455.53;4918062;29;20465;-84
2023/05/29 00:05:45;;;;;;;9.93;4.90;;;;;;;13.58;67.29;101445.72;4920196;29;20442;-83
2023/05/29 00:08:15;;;;;;;9.00;4.50;;;;;;;13.68;66.88;101451.56;4920240;29;20459;-85
2023/05/29 00:10:44;;;;;;;8.40;5.00;;;;;;;13.60;67.01;101457.22;4918517;29;20441;-84
2023/05/29 00:13:14;;;;;;;10.40;5.30;;;;;;;13.44;67.69;101458.47;4921228;29;20466;-84
2023/05/29 00:15:43;;;;;;;10.83;5.33;;;;;;;13.49;67.34;101462.22;4919951;29;20438;-84
2023/05/29 00:18:12;;;;;;;6.37;4.07;;;;;;;13.42;67.70;101460.53;4913733;29;20953;-83
2023/05/29 00:20:42;;;;;;;8.93;4.40;;;;;;;13.41;67.78;101459.69;4910325;29;20521;-83
2023/05/29 00:23:13;;;;;;;9.20;4.80;;;;;;;13.42;67.40;101457.81;4912662;29;20437;-82
2023/05/29 00:25:42;;;;;;;7.57;4.27;;;;;;;13.37;67.75;101463.03;4913475;29;20429;-83
2023/05/29 00:28:12;;;;;;;6.77;3.73;;;;;;;13.32;67.61;101463.66;4908359;29;20446;-84
2023/05/29 00:30:41;;;;;;;9.10;4.77;;;;;;;13.31;67.67;101450.28;4912104;29;20406;-84
2023/05/29 00:33:11;;;;;;;6.70;4.50;;;;;;;13.30;67.46;101454.88;4910927;29;20517;-84
2023/05/29 00:35:41;;;;;;;6.10;5.30;;;;;;;13.22;67.76;101455.06;4913120;29;20434;-84
2023/05/29 00:38:12;;;;;;;17.10;5.70;;;;;;;13.31;67.46;101459.25;4917050;29;20431;-84
2023/05/29 00:40:42;;;;;;;8.53;4.47;;;;;;;13.18;67.94;101463.84;4911028;29;20571;-84
2023/05/29 00:43:11;;;;;;;9.50;4.73;;;;;;;13.06;68.51;101459.00;4918990;29;20730;-84
2023/05/29 00:45:41;;;;;;;9.87;5.03;;;;;;;13.03;68.83;101463.97;4917170;29;20404;-84
2023/05/29 00:48:10;;;;;;;15.70;4.40;;;;;;;12.86;69.73;101451.81;4916158;29;20439;-82
2023/05/29 00:50:40;;;;;;;7.60;4.80;;;;;;;12.78;70.06;101460.13;4908384;29;20862;-83
2023/05/29 00:53:10;;;;;;;9.97;5.90;;;;;;;12.82;70.70;101464.13;4920958;29;20478;-83
2023/05/29 00:55:41;;;;;;;11.70;4.67;;;;;;;12.79;70.33;101464.50;4920976;29;20417;-84
2023/05/29 00:58:10;;;;;;;10.20;4.80;;;;;;;12.79;70.57;101467.22;4919738;29;20445;-84
2023/05/29 01:00:40;;;;;;;7.17;4.43;;;;;;;12.78;70.62;101473.72;4920213;29;20490;-83
2023/05/29 01:03:10;;;;;;;9.83;4.80;;;;;;;12.91;70.07;101468.34;4920015;29;20463;-84
2023/05/29 01:05:41;;;;;;;10.47;5.17;;;;;;;12.79;70.81;101464.50;4917507;29;20460;-84
2023/05/29 01:08:12;;;;;;;8.40;5.87;;;;;;;12.64;71.24;101464.66;4933608;29;20470;-83
2023/05/29 01:10:43;;;;;;;6.03;4.53;;;;;;;12.54;72.05;101472.31;4921042;29;20445;-85
2023/05/29 01:13:19;;;;;;;6.47;5.17;;;;;;;12.67;71.99;101466.13;4921811;29;20457;-83
2023/05/29 01:15:57;;;;;;;7.17;4.80;;;;;;;12.50;72.47;101462.91;4921151;29;20460;-84
2023/05/29 01:18:39;;;;;;;13.40;6.57;;;;;;;12.66;72.13;101480.75;4921254;29;20446;-83
2023/05/29 01:21:18;;;;;;;7.07;5.00;;;;;;;12.49;72.81;101469.41;4914145;29;20537;-83
2023/05/29 01:24:10;;;;;;;9.57;5.40;;;;;;;12.45;73.25;101471.66;4922256;29;20456;-84
2023/05/29 01:26:52;;;;;;;9.17;5.03;;;;;;;12.45;73.13;101474.38;4907633;29;20402;-84
2023/05/29 01:29:25;;;;;;;8.53;4.70;;;;;;;12.18;74.25;101478.81;4901676;29;21023;-84
2023/05/29 01:31:57;;;;;;;16.40;6.03;;;;;;;12.26;74.11;101479.69;4906432;29;20409;-84
2023/05/29 01:34:26;;;;;;;9.00;5.37;;;;;;;12.16;74.77;101480.03;4907894;29;20462;-83
2023/05/29 01:36:55;;;;;;;11.43;6.03;;;;;;;12.02;75.20;101478.28;4916899;29;20457;-84
2023/05/29 01:39:25;;;;;;;9.00;5.00;;;;;;;11.91;75.63;101482.34;4918445;29;20413;-84
2023/05/29 01:41:57;;;;;;;9.30;4.63;;;;;;;11.76;76.38;101477.00;4917862;29;20495;-84
2023/05/29 01:44:28;;;;;;;13.17;5.70;;;;;;;11.75;76.55;101478.06;4916670;29;20950;-83
2023/05/29 01:46:58;;;;;;;8.37;4.80;;;;;;;11.63;77.03;101474.16;4907310;29;20728;-83
2023/05/29 01:49:29;;;;;;;8.60;4.40;;;;;;;12.39;74.36;101477.88;4905126;29;21043;-83
2023/05/29 01:51:59;;;;;;;12.10;4.63;;;;;;;12.05;74.94;101478.69;4903990;29;20430;-83
2023/05/29 01:54:28;;;;;;;7.47;5.07;;;;;;;11.99;74.97;101473.25;4904366;29;20470;-83
2023/05/29 01:57:00;;;;;;;6.53;4.17;;;;;;;11.79;76.09;101481.22;4905943;29;20442;-84
2023/05/29 01:59:56;;;;;;;7.50;4.53;;;;;;;11.72;76.53;101483.00;4903361;29;20444;-83
2023/05/29 02:02:25;;;;;;;7.97;4.40;;;;;;;11.75;76.76;101483.50;4902859;29;20455;-83
2023/05/29 02:04:55;;;;;;;13.30;4.90;;;;;;;11.94;75.94;101486.56;4903941;29;20443;-83
2023/05/29 02:07:25;;;;;;;9.07;4.87;;;;;;;11.71;76.98;101487.56;4901246;29;20432;-83
2023/05/29 02:09:54;;;;;;;8.23;4.13;;;;;;;11.66;77.26;101484.63;4916441;29;20449;-84
2023/05/29 02:12:24;;;;;;;8.37;4.57;;;;;;;11.56;77.58;101489.53;4916110;29;20861;-84
2023/05/29 02:14:53;;;;;;;10.03;4.80;;;;;;;11.45;78.14;101490.06;4900681;29;20474;-84
2023/05/29 02:17:23;;;;;;;7.20;4.77;;;;;;;11.51;78.38;101488.44;4904180;29;20808;-83
2023/05/29 02:19:52;;;;;;;8.30;4.80;;;;;;;11.56;78.06;101489.53;4903571;29;20497;-83
2023/05/29 02:22:21;;;;;;;9.10;5.13;;;;;;;11.61;77.71;101487.09;4899180;29;20473;-83
2023/05/29 02:24:50;;;;;;;13.70;5.37;;;;;;;11.54;77.86;101485.34;4900909;29;21019;-84
2023/05/29 02:27:20;;;;;;;7.27;5.90;;;;;;;11.92;76.80;101483.19;4899352;29;20466;-83
2023/05/29 02:29:51;;;;;;;9.27;5.00;;;;;;;11.83;76.91;101492.50;4913090;29;20434;-83
2023/05/29 02:32:22;;;;;;;6.20;4.60;;;;;;;11.73;76.91;101490.97;4919734;29;20450;-83
2023/05/29 02:34:52;;;;;;;10.13;4.73;;;;;;;11.51;77.78;101496.56;4919342;29;20490;-83
2023/05/29 02:37:25;;;;;;;8.80;4.53;;;;;;;11.89;76.92;101494.44;4918881;29;20437;-83
2023/05/29 02:39:54;;;;;;;6.67;4.70;;;;;;;12.08;75.64;101488.34;4919884;29;20477;-83
2023/05/29 02:42:23;;;;;;;8.47;4.17;;;;;;;11.83;76.74;101495.22;4911955;29;20856;-83
2023/05/29 02:44:54;;;;;;;10.37;5.63;;;;;;;11.80;76.47;101498.34;4906923;29;20466;-84
2023/05/29 02:47:23;;;;;;;10.57;5.53;;;;;;;11.39;77.55;101496.25;4902631;29;20466;-83
2023/05/29 02:49:52;;;;;;;7.47;5.00;;;;;;;11.34;78.38;101495.97;4902492;29;20529;-84
2023/05/29 02:52:22;;;;;;;10.93;4.93;;;;;;;11.24;78.92;101490.03;4898665;29;20926;-84
2023/05/29 02:54:54;;;;;;;6.77;5.00;;;;;;;11.19;79.10;101492.47;4900626;29;20493;-83
2023/05/29 02:57:24;;;;;;;9.93;4.23;;;;;;;11.19;79.40;101493.31;4897907;29;20457;-83
2023/05/29 02:59:55;;;;;;;11.13;5.43;;;;;;;11.08;79.80;101499.25;4902366;29;20793;-83
2023/05/29 03:02:24;;;;;;;10.57;5.43;;;;;;;11.09;80.37;101502.78;4918549;29;20493;-84
2023/05/29 03:04:54;;;;;;;8.10;4.97;;;;;;;11.06;80.31;101504.00;4915029;29;20463;-84
2023/05/29 03:07:23;;;;;;;8.73;5.10;;;;;;;10.99;80.58;101504.97;4905465;29;20420;-83
2023/05/29 03:09:52;;;;;;;5.97;4.87;;;;;;;11.09;80.71;101514.44;4902981;29;20446;-84
2023/05/29 03:12:22;;;;;;;7.73;6.10;;;;;;;11.12;79.88;101514.09;4902856;29;20449;-84
2023/05/29 03:14:51;;;;;;;8.40;4.60;;;;;;;11.21;79.78;101518.38;4903289;29;20499;-83
2023/05/29 03:17:22;;;;;;;10.90;5.17;;;;;;;11.07;79.96;101510.28;4905054;29;20446;-84
2023/05/29 03:19:52;;;;;;;8.17;5.77;;;;;;;11.02;80.06;101518.13;4908036;29;20453;-84
2023/05/29 03:22:21;;;;;;;9.05;4.70;;;;;;;11.04;80.55;101505.22;4911756;29;20872;-84
2023/05/29 03:24:50;;;;;;;8.52;6.00;;;;;;;11.01;80.73;101511.03;4914064;29;20268;-83
2023/05/29 03:27:19;;;;;;;8.10;5.27;;;;;;;11.09;79.84;101513.63;4916776;29;20198;-84
2023/05/29 03:29:58;;;;;;;9.97;5.03;;;;;;;11.00;80.45;101509.34;4907067;29;20514;-84
2023/05/29 03:32:29;;;;;;;11.23;5.40;;;;;;;11.19;80.48;101516.84;4904570;29;20438;-84
2023/05/29 03:34:59;;;;;;;10.40;5.20;;;;;;;11.53;78.29;101508.88;4903521;29;20557;-83
2023/05/29 03:37:28;;;;;;;8.93;5.07;;;;;;;11.90;76.84;101515.13;4903587;29;20461;-84
2023/05/29 03:39:57;;;;;;;8.87;4.50;;;;;;;12.29;74.90;101518.13;4902159;29;20423;-83
2023/05/29 03:42:26;;;;;;;6.20;3.90;;;;;;;12.44;73.78;101510.69;4904060;29;20466;-83
2023/05/29 03:44:56;;;;;;;7.07;4.73;;;;;;;12.49;73.27;101516.38;4903655;29;20469;-84
2023/05/29 03:47:25;;;;;;;9.60;5.63;;;;;;;12.31;73.90;101515.19;4905699;29;20458;-84
2023/05/29 03:49:57;;;;;;;8.33;5.73;;;;;;;12.50;73.35;101518.06;4905472;29;20440;-84
2023/05/29 03:52:26;;;;;;;5.87;5.10;;;;;;;12.78;72.01;101517.19;4904852;29;20437;-84
2023/05/29 03:54:57;;;;;;;7.43;4.60;;;;;;;12.77;71.64;101526.34;4902757;29;20480;-84
2023/05/29 03:57:27;;;;;;;6.63;4.47;;;;;;;13.19;70.49;101530.75;4907901;29;20417;-84
2023/05/29 03:59:56;;;;;;;13.60;4.80;;;;;;;13.44;69.01;101524.56;4907665;29;20546;-84
2023/05/29 04:02:25;;;;;;;8.90;4.73;;;;;;;13.56;68.80;101522.03;4906404;29;20973;-84
2023/05/29 04:04:56;;;;;;;8.83;4.93;;;;;;;13.45;68.46;101528.94;4906089;29;20437;-83
2023/05/29 04:07:25;;;;;;;7.00;4.93;;;;;;;13.99;67.50;101518.97;4911571;29;20416;-84
2023/05/29 04:09:54;;;;;;;7.53;5.17;;;;;;;15.20;62.45;101526.47;4910675;29;20491;-84
2023/05/29 04:12:23;;;;;;;8.30;4.80;;;;;;;15.54;59.76;101517.06;4915327;29;20430;-84
2023/05/29 04:14:52;;;;;;;7.47;4.40;;;;;;;15.61;60.29;101520.56;4908792;29;20463;-84
2023/05/29 04:17:21;;;;;;;7.83;4.67;;;;;;;16.68;57.21;101523.00;4908522;29;20417;-84
2023/05/29 04:19:51;;;;;;;7.23;4.27;;;;;;;17.18;54.65;101523.66;4910403;29;20484;-83
2023/05/29 04:22:21;;;;;;;11.43;4.67;;;;;;;16.64;55.14;101535.47;4905973;29;20445;-83
2023/05/29 04:24:51;;;;;;;7.93;4.60;;;;;;;15.37;58.99;101538.53;4904067;29;20471;-84
2023/05/29 04:27:20;;;;;;;8.13;4.33;;;;;;;14.63;62.03;101541.72;4909644;29;20529;-83
2023/05/29 04:29:49;;;;;;;7.50;5.57;;;;;;;14.85;62.56;101544.19;4912161;29;20446;-83
2023/05/29 04:32:18;;;;;;;8.53;4.60;;;;;;;14.73;62.37;101538.56;4914326;29;20431;-84
2023/05/29 04:34:47;;;;;;;11.60;4.57;;;;;;;15.17;61.23;101537.78;4919157;29;21103;-84
2023/05/29 04:37:17;;;;;;;5.40;4.40;;;;;;;14.75;61.68;101528.31;4920234;29;20447;-84
2023/05/29 04:39:48;;;;;;;9.50;4.33;;;;;;;14.42;63.23;101530.28;4919575;29;20448;-83
2023/05/29 04:42:24;;;;;;;10.73;5.90;;;;;;;15.25;60.87;101533.97;4909233;29;20527;-84
2023/05/29 04:44:54;;;;;;;7.67;4.47;;;;;;;15.08;61.05;101531.75;4919534;29;20506;-83
2023/05/29 04:47:24;;;;;;;5.67;4.53;;;;;;;14.63;62.88;101527.28;4920547;29;20481;-83
2023/05/29 04:49:54;;;;;;;7.30;4.50;;;;;;;14.97;61.67;101532.41;4921015;29;20493;-83
2023/05/29 04:52:24;;;;;;;6.90;4.03;;;;;;;15.44;59.84;101543.94;4920133;29;20420;-83
2023/05/29 04:54:54;;;;;;;6.43;4.80;;;;;;;15.13;60.87;101544.72;4913961;29;20457;-84
2023/05/29 04:57:24;;;;;;;8.40;4.83;;;;;;;14.82;62.09;101544.59;4905990;29;20425;-84
2023/05/29 04:59:53;;;;;;;6.67;4.93;;;;;;;14.48;63.18;101548.47;4905427;29;20417;-83
2023/05/29 05:02:22;;;;;;;6.37;4.87;;;;;;;14.15;64.77;101538.41;4907789;29;20467;-84
2023/05/29 05:04:51;;;;;;;8.00;4.40;;;;;;;16.45;57.96;101547.41;4914341;29;20462;-84
2023/05/29 05:07:21;;;;;;;6.77;4.37;;;;;;;16.25;56.94;101546.75;4920128;29;20434;-84
2023/05/29 05:09:50;;;;;;;6.73;4.07;;;;;;;17.47;53.92;101540.31;4919693;29;20446;-84
2023/05/29 05:12:24;;;;;;;7.90;5.13;;;;;;;18.63;50.65;101537.81;4915935;29;20430;-84
2023/05/29 05:14:54;;;;;;;6.53;3.80;;;;;;;20.00;47.62;101540.53;4914949;29;20524;-83
2023/05/29 05:17:23;;;;;;;7.73;5.10;;;;;;;20.39;45.86;101545.91;4908827;29;20522;-83
2023/05/29 05:19:54;;;;;;;9.77;4.67;;;;;;;19.50;47.24;101546.81;4909355;29;20459;-83
2023/05/29 05:22:24;;;;;;;6.87;4.60;;;;;;;18.37;49.86;101536.38;4914182;29;20441;-83
2023/05/29 05:24:54;;;;;;;5.10;4.60;;;;;;;17.30;52.72;101543.69;4918629;29;20494;-82
2023/05/29 05:27:26;;;;;;;8.23;3.50;;;;;;;18.33;50.53;101540.66;4919328;29;21009;-82
2023/05/29 05:29:56;;;;;;;5.80;3.70;;;;;;;17.28;52.82;101542.25;4908026;29;20435;-83
2023/05/29 05:32:25;;;;;;;7.47;3.50;;;;;;;16.60;55.49;101544.34;4902250;29;20420;-83
2023/05/29 05:35:05;;;;;;;10.70;3.57;;;;;;;16.13;57.18;101552.06;4905721;29;20443;-82
2023/05/29 05:37:34;;;;;;;6.00;3.80;;;;;;;15.81;58.83;101548.56;4907659;29;21219;-83
2023/05/29 05:40:06;;;;;;;5.83;3.57;;;;;;;15.81;59.26;101553.19;4914353;29;20452;-84
2023/05/29 05:42:49;;;;;;;9.20;4.80;;;;;;;15.78;59.65;101554.44;4913171;29;20463;-83
2023/05/29 05:45:30;;;;;;;5.20;4.30;;;;;;;15.58;60.55;101551.03;4915155;29;20536;-83
2023/05/29 05:48:02;;;;;;;5.90;4.23;;;;;;;15.72;59.83;101549.88;4914203;29;20878;-84
2023/05/29 05:50:34;;;;;;;4.47;3.00;;;;;;;15.87;59.45;101549.56;4917646;29;20943;-84
2023/05/29 05:53:04;;;;;;;5.70;4.47;;;;;;;16.02;58.92;101553.63;4911485;29;20417;-84
2023/05/29 05:55:34;;;;;;;6.87;3.40;;;;;;;16.09;58.74;101564.50;4914965;29;20411;-83
2023/05/29 05:58:05;;;;;;;9.07;3.70;;;;;;;16.22;58.03;101563.56;4915609;29;20443;-82
2023/05/29 06:00:36;;;;;;;8.00;3.80;;;;;;;16.19;57.61;101559.38;4914293;29;20436;-83
2023/05/29 06:03:05;;;;;;;5.63;3.50;;;;;;;16.10;58.50;101571.66;4914456;29;20464;-83
2023/05/29 06:05:54;;;;;;;5.67;2.90;;;;;;;16.52;56.95;101570.00;4912359;29;20416;-82
2023/05/29 06:08:23;;;;;;;5.30;4.03;;;;;;;16.94;55.56;101566.44;4912745;29;20485;-83
2023/05/29 06:10:53;;;;;;;4.30;3.20;;;;;;;17.12;54.49;101570.25;4915405;29;20421;-82
2023/05/29 06:13:25;;;;;;;4.53;3.43;;;;;;;17.48;52.47;101572.91;4915387;29;20471;-83
2023/05/29 06:16:04;;;;;;;4.50;3.30;;;;;;;17.60;52.25;101571.09;4916413;29;20528;-83
2023/05/29 06:18:33;;;;;;;6.03;2.73;;;;;;;17.68;52.31;101565.28;4917155;29;20442;-83
2023/05/29 06:21:02;;;;;;;4.67;3.43;;;;;;;17.91;51.09;101575.47;4917809;29;20417;-83
2023/05/29 06:23:33;;;;;;;4.73;3.23;;;;;;;17.86;51.64;101577.25;4926935;29;20484;-82
2023/05/29 06:26:03;;;;;;;4.80;2.67;;;;;;;17.67;50.68;101577.28;4918041;29;20412;-82
2023/05/29 06:28:33;;;;;;;4.00;3.10;;;;;;;17.85;51.37;101581.06;4918654;29;20439;-80
2023/05/29 06:31:03;;;;;;;5.07;3.47;;;;;;;17.85;50.09;101581.06;4915349;29;20475;-82
2023/05/29 06:33:32;;;;;;;7.03;3.43;;;;;;;18.11;49.86;101580.63;4933788;29;20433;-82
2023/05/29 06:36:01;;;;;;;3.90;3.00;;;;;;;18.24;48.71;101585.91;4919017;29;20642;-84
2023/05/29 06:38:31;;;;;;;6.50;3.47;;;;;;;17.76;49.41;101588.78;4919000;29;20401;-82
2023/05/29 06:41:01;;;;;;;8.53;2.97;;;;;;;17.88;50.39;101586.06;4920243;29;20508;-82
2023/05/29 06:43:30;;;;;;;4.47;3.33;;;;;;;17.93;49.14;101591.66;4921820;29;20465;-82
2023/05/29 06:46:01;;;;;;;3.60;2.37;;;;;;;18.07;49.56;101595.88;4926035;29;20439;-83
2023/05/29 06:48:34;;;;;;;4.27;3.17;;;;;;;18.17;49.41;101596.13;4920865;29;20459;-82
2023/05/29 06:51:08;;;;;;;4.17;3.20;;;;;;;18.39;48.41;101593.69;4919405;29;20413;-82
2023/05/29 06:53:49;;;;;;;5.87;2.70;;;;;;;18.15;48.57;101599.09;4918536;29;20427;-82
2023/05/29 06:56:19;;;;;;;3.43;2.73;;;;;;;18.09;48.78;101593.75;4914932;29;20488;-83
2023/05/29 06:58:48;;;;;;;6.57;3.00;;;;;;;18.18;48.87;101595.91;4907345;29;20441;-83
2023/05/29 07:01:18;;;;;;;4.03;1.90;;;;;;;18.17;47.96;101596.13;4906459;29;20426;-82
2023/05/29 07:03:56;;;;;;;4.00;2.63;;;;;;;18.07;47.66;101601.34;4904966;29;20482;-83
2023/05/29 07:06:26;;;;;;;4.33;3.53;;;;;;;17.96;48.48;101602.97;4913123;29;20434;-82
2023/05/29 07:08:55;;;;;;;7.43;3.53;;;;;;;18.59;47.58;101603.25;4921542;29;20452;-83
2023/05/29 07:11:25;;;;;;;5.73;3.27;;;;;;;18.76;47.02;101599.78;4922611;29;20440;-82
2023/05/29 07:13:55;;;;;;;3.00;2.47;;;;;;;18.85;46.19;101604.66;4922445;29;20439;-83
2023/05/29 07:16:28;;;;;;;5.23;2.67;;;;;;;18.64;46.87;101605.25;4911278;29;20420;-83
2023/05/29 07:19:05;;;;;;;3.50;2.87;;;;;;;18.86;46.74;101611.81;4920311;29;20458;-83
2023/05/29 07:21:38;;;;;;;4.03;3.00;;;;;;;19.36;46.05;101606.63;4920277;29;20428;-83
2023/05/29 07:24:08;;;;;;;5.93;3.27;;;;;;;19.38;45.04;101617.34;4915849;29;20511;-84
2023/05/29 07:26:40;;;;;;;4.07;2.57;;;;;;;18.86;45.97;101614.56;4908218;29;20417;-83
2023/05/29 07:29:17;;;;;;;4.63;2.60;;;;;;;19.12;45.59;101615.16;4909209;29;20456;-83
2023/05/29 07:31:48;;;;;;;3.40;2.60;;;;;;;19.31;45.23;101603.78;4911010;29;20431;-83
2023/05/29 07:34:28;;;;;;;3.43;2.50;;;;;;;19.51;44.75;101604.19;4909214;29;20491;-83
2023/05/29 07:37:02;;;;;;;4.53;3.03;;;;;;;20.09;43.45;101611.31;4914124;29;20448;-82
2023/05/29 07:39:34;;;;;;;3.70;2.70;;;;;;;20.00;43.81;101618.31;4911887;29;20397;-83
2023/05/29 07:42:12;;;;;;;6.77;3.60;;;;;;;19.65;44.33;101617.66;4909750;29;20486;-83
2023/05/29 07:44:45;;;;;;;2.87;2.43;;;;;;;19.44;43.67;101611.75;4909070;29;20460;-82
2023/05/29 07:47:16;;;;;;;4.13;2.30;;;;;;;19.33;44.19;101620.81;4908653;29;20436;-83
2023/05/29 07:49:48;;;;;;;2.50;2.30;;;;;;;19.24;44.13;101619.53;4906545;29;20459;-82
2023/05/29 07:52:19;;;;;;;3.90;3.00;;;;;;;19.13;44.99;101623.13;4910593;29;20429;-82
2023/05/29 07:54:49;;;;;;;5.13;3.30;;;;;;;19.41;45.14;101623.16;4909545;29;20490;-83
2023/05/29 07:57:20;;;;;;;4.70;3.03;;;;;;;19.49;44.36;101622.84;4911189;29;20448;-83
2023/05/29 07:59:53;;;;;;;3.63;3.30;;;;;;;19.06;45.02;101630.66;4912989;29;20507;-82
2023/05/29 08:02:36;;;;;;;3.40;2.70;;;;;;;19.14;46.38;101630.28;4914781;29;20533;-82
2023/05/29 08:05:29;;;;;;;4.50;2.90;;;;;;;19.04;45.95;101630.03;4914757;29;20425;-83
2023/05/29 08:07:58;;;;;;;5.03;2.90;;;;;;;19.16;45.24;101630.88;4915674;29;20424;-83
2023/05/29 08:10:29;;;;;;;5.53;2.97;;;;;;;19.44;44.52;101625.47;4915082;29;20435;-83
2023/05/29 08:12:59;;;;;;;5.77;2.80;;;;;;;19.88;42.83;101631.28;4910554;29;20778;-82
2023/05/29 08:15:28;;;;;;;3.00;2.10;;;;;;;19.87;41.86;101632.34;4919084;29;20849;-83
2023/05/29 08:18:00;;;;;;;4.50;2.30;;;;;;;19.87;42.31;101624.13;4915396;29;20473;-84
2023/05/29 08:20:34;;;;;;;2.30;2.07;;;;;;;19.91;42.77;101630.78;4920339;29;20437;-82
2023/05/29 08:23:04;;;;;;;4.20;2.30;;;;;;;19.94;42.85;101624.81;4918631;29;20427;-82
2023/05/29 08:25:39;;;;;;;3.40;3.00;;;;;;;20.33;42.51;101623.06;4919885;29;20479;-83
2023/05/29 08:28:08;;;;;;;8.93;2.60;;;;;;;20.51;41.75;101625.56;4919493;29;20442;-83
2023/05/29 08:30:38;;;;;;;3.17;2.37;;;;;;;19.92;40.04;101622.28;4905744;29;20447;-83
2023/05/29 08:33:09;;;;;;;3.87;2.50;;;;;;;19.63;41.62;101614.31;4921109;29;20410;-83
2023/05/29 08:35:41;;;;;;;2.70;2.50;;;;;;;19.80;41.83;101617.94;4909066;29;20450;-81
2023/05/29 08:38:10;;;;;;;7.70;3.50;;;;;;;19.98;41.45;101620.47;4908752;29;20449;-84
2023/05/29 08:40:39;;;;;;;3.80;3.10;;;;;;;19.58;42.39;101619.69;4912517;29;20413;-83
2023/05/29 08:43:16;;;;;;;4.07;3.47;;;;;;;19.71;42.29;101619.41;4905699;29;20438;-83
2023/05/29 08:45:48;;;;;;;4.13;3.20;;;;;;;19.91;41.91;101614.28;4912595;29;20469;-82
2023/05/29 08:48:26;;;;;;;6.07;3.10;;;;;;;20.18;42.11;101609.84;4904764;29;20432;-83
2023/05/29 08:50:56;;;;;;;6.97;3.17;;;;;;;20.43;41.07;101619.66;4904499;29;20438;-82
2023/05/29 08:53:27;;;;;;;3.70;2.50;;;;;;;20.37;41.51;101613.22;4903584;29;20569;-83
2023/05/29 08:55:59;;;;;;;3.90;2.93;;;;;;;20.60;41.88;101617.72;4907454;29;20438;-82
2023/05/29 08:58:34;;;;;;;4.27;2.43;;;;;;;20.79;41.42;101621.84;4918526;29;20434;-83
2023/05/29 09:01:12;;;;;;;4.93;3.20;;;;;;;21.08;40.75;101612.38;4922247;29;20422;-82
2023/05/29 09:03:43;;;;;;;5.30;2.70;;;;;;;20.89;41.08;101608.25;4922026;29;20470;-83
2023/05/29 09:06:13;;;;;;;4.13;2.70;;;;;;;20.78;41.87;101615.53;4907572;29;20470;-82
2023/05/29 09:08:43;;;;;;;6.03;3.20;;;;;;;20.99;40.17;101616.66;4903711;29;20593;-82
2023/05/29 09:11:12;;;;;;;3.40;2.50;;;;;;;21.30;40.11;101622.59;4908232;29;20445;-82
2023/05/29 09:13:42;;;;;;;4.67;3.13;;;;;;;20.91;40.11;101614.34;4918743;29;20483;-82
2023/05/29 09:16:11;;;;;;;4.60;3.13;;;;;;;21.09;40.12;101611.28;4913344;29;20466;-84
2023/05/29 09:18:45;;;;;;;3.43;2.63;;;;;;;20.90;40.16;101601.66;4907951;29;20489;-83
2023/05/29 09:21:29;;;;;;;4.20;2.93;;;;;;;20.49;41.19;101621.38;4908589;29;20843;-83
2023/05/29 09:24:05;;;;;;;5.70;4.37;;;;;;;20.79;40.56;101617.19;4911478;29;20879;-83
2023/05/29 09:26:34;;;;;;;3.90;2.80;;;;;;;20.75;40.98;101620.69;4922513;29;20448;-82
2023/05/29 09:29:05;;;;;;;3.70;3.10;;;;;;;20.95;40.83;101623.75;4928392;29;20515;-82
2023/05/29 09:31:46;;;;;;;7.67;2.93;;;;;;;21.00;40.57;101623.84;4920156;29;20500;-82
2023/05/29 09:34:17;;;;;;;3.17;2.47;;;;;;;20.56;40.58;101624.81;4920584;29;20449;-84
2023/05/29 09:36:47;;;;;;;7.43;3.00;;;;;;;20.45;41.40;101637.53;4918452;29;20459;-83
2023/05/29 09:39:17;;;;;;;5.20;3.43;;;;;;;20.45;40.54;101639.47;4907337;29;20474;-83
2023/05/29 09:41:48;;;;;;;5.07;3.10;;;;;;;20.30;41.42;101629.88;4906376;29;20787;-82
2023/05/29 09:44:17;;;;;;;5.43;3.97;;;;;;;20.69;40.43;101632.69;4907645;29;20478;-83
2023/05/29 09:46:49;;;;;;;5.37;3.73;;;;;;;21.16;39.41;101631.22;4908244;29;20434;-84
2023/05/29 09:49:24;;;;;;;9.10;2.70;;;;;;;21.04;39.50;101624.97;4900700;29;20449;-83
2023/05/29 09:51:55;;;;;;;4.10;3.07;;;;;;;20.85;39.96;101626.34;4905696;29;20430;-83
2023/05/29 09:54:25;;;;;;;5.50;3.10;;;;;;;21.57;39.08;101617.97;4905547;29;20897;-82
2023/05/29 09:56:55;;;;;;;3.73;2.80;;;;;;;21.92;38.83;101615.63;4906030;29;20463;-83
2023/05/29 09:59:25;;;;;;;4.00;3.10;;;;;;;21.66;39.18;101621.94;4905974;29;20497;-83
2023/05/29 10:02:03;;;;;;;3.50;3.20;;;;;;;21.24;39.89;101617.03;4911185;29;20492;-84
2023/05/29 10:04:35;;;;;;;5.93;3.10;;;;;;;21.54;39.53;101601.97;4908944;29;20471;-81
2023/05/29 10:07:09;;;;;;;8.20;2.90;;;;;;;21.77;38.61;101604.44;4918384;29;20478;-83
2023/05/29 10:09:45;;;;;;;5.87;3.17;;;;;;;21.82;38.77;101603.66;4902200;29;20513;-83
2023/05/29 10:12:20;;;;;;;6.73;3.63;;;;;;;21.43;37.58;101605.69;4910476;29;20487;-83
2023/05/29 10:14:51;;;;;;;5.50;3.63;;;;;;;21.02;38.43;101616.13;4907458;29;20445;-83
2023/05/29 10:17:27;;;;;;;5.50;3.50;;;;;;;21.25;38.60;101604.09;4905396;29;20988;-82
2023/05/29 10:20:03;;;;;;;5.03;3.60;;;;;;;21.99;37.27;101613.50;4914585;29;20444;-83
2023/05/29 10:22:34;;;;;;;4.40;3.20;;;;;;;22.37;36.58;101606.13;4909093;29;20465;-83
2023/05/29 10:25:06;;;;;;;4.40;4.00;;;;;;;22.27;36.82;101608.81;4909927;29;20477;-83
2023/05/29 10:27:36;;;;;;;3.40;2.67;;;;;;;21.71;36.61;101610.97;4910997;29;20451;-84
2023/05/29 10:30:11;;;;;;;8.93;3.70;;;;;;;21.80;36.89;101612.16;4926213;29;20474;-83
2023/05/29 10:33:00;;;;;;;4.50;3.50;;;;;;;21.84;37.43;101607.81;4917018;29;20438;-83
2023/05/29 10:35:39;;;;;;;5.43;2.53;;;;;;;21.85;37.49;101603.97;4915023;29;20475;-83
2023/05/29 10:38:13;;;;;;;5.40;3.97;;;;;;;21.85;36.67;101603.97;4915698;29;20401;-83
2023/05/29 10:40:43;;;;;;;9.30;3.50;;;;;;;22.31;36.80;101601.69;4914855;29;20409;-82
2023/05/29 10:43:32;;;;;;;4.37;3.40;;;;;;;22.21;35.99;101607.09;4914270;29;20495;-82
2023/05/29 10:46:03;;;;;;;7.83;3.03;;;;;;;21.24;37.81;101602.44;4918853;29;20477;-81
2023/05/29 10:48:43;;;;;;;6.43;3.90;;;;;;;21.53;38.00;101611.31;4934084;29;20543;-83
2023/05/29 10:51:31;;;;;;;4.83;3.00;;;;;;;22.33;37.03;101593.94;4919294;29;20426;-83
2023/05/29 10:54:00;;;;;;;7.93;3.23;;;;;;;22.32;37.43;101603.31;4913614;29;20465;-83
2023/05/29 10:56:31;;;;;;;4.73;3.43;;;;;;;22.56;36.49;101593.56;4916201;29;20434;-83
2023/05/29 10:59:02;;;;;;;4.30;3.00;;;;;;;22.81;35.42;101582.75;4914616;29;20435;-82
2023/05/29 11:01:32;;;;;;;8.97;4.10;;;;;;;23.10;34.69;101593.38;4914222;29;20441;-82
2023/05/29 11:04:28;;;;;;;7.03;2.80;;;;;;;23.10;34.08;101587.84;4908886;29;20457;-82
2023/05/29 11:07:05;;;;;;;3.67;3.37;;;;;;;23.00;35.46;101601.59;4912415;29;20487;-82
2023/05/29 11:09:37;;;;;;;5.03;3.20;;;;;;;22.07;36.93;101609.47;4914490;29;20436;-83
2023/05/29 11:12:14;;;;;;;8.20;3.20;;;;;;;21.36;37.84;101599.53;4916970;29;20466;-83
2023/05/29 11:14:50;;;;;;;7.27;3.83;;;;;;;21.30;37.60;101595.06;4923327;29;20481;-82
2023/05/29 11:17:34;;;;;;;5.63;2.87;;;;;;;21.14;37.80;101602.31;4916035;29;20442;-83
2023/05/29 11:20:07;;;;;;;4.93;3.20;;;;;;;21.42;36.84;101598.50;4909251;29;20455;-83
2023/05/29 11:23:01;;;;;;;10.73;3.33;;;;;;;21.74;35.95;101584.81;4922670;29;20512;-81
2023/05/29 11:25:36;;;;;;;4.20;2.60;;;;;;;21.91;36.66;101580.06;4954815;23;20467;-83
2023/05/29 11:28:13;;;;;;;4.37;3.77;;;;;;;21.83;37.71;101584.13;4908416;29;20443;-84
2023/05/29 11:30:49;;;;;;;6.03;3.60;;;;;;;21.04;38.54;101580.94;4917180;29;20446;-84
2023/05/29 11:33:27;;;;;;;4.83;2.83;;;;;;;21.15;38.65;101585.53;4927593;29;20424;-84
2023/05/29 11:36:01;;;;;;;6.53;3.47;;;;;;;20.94;39.28;101583.56;4905098;29;20464;-84
2023/05/29 11:38:32;;;;;;;6.40;3.70;;;;;;;21.31;38.84;101591.22;4898460;29;20440;-84
2023/05/29 11:41:03;;;;;;;4.40;3.13;;;;;;;21.50;38.29;101585.13;4900494;29;20422;-83
2023/05/29 11:43:33;;;;;;;4.87;4.37;;;;;;;22.08;36.55;101592.63;4905623;29;20420;-84
2023/05/29 11:46:03;;;;;;;6.93;3.40;;;;;;;22.33;36.92;101582.91;4899155;29;20506;-84